sensor_id;sensor_type;location;lat;lon;timestamp;P1;durP1;ratioP1;P2;durP2;ratioP2
29280;SDS011;25048;49.590;11.026;2022-11-13T00:01:14;24.90;;;12.20;;
29280;SDS011;25048;49.590;11.026;2022-11-13T00:03:46;20.37;;;10.33;;
29280;SDS011;25048;49.590;11.026;2022-11-13T00:06:15;22.20;;;12.03;;
29280;SDS011;25048;49.590;11.026;2022-11-13T00:08:43;26.93;;;11.80;;
29280;SDS011;25048;49.590;11.026;2022-11-13T00:11:12;21.87;;;12.70;;
29280;SDS011;25048;49.590;11.026;2022-11-13T00:13:43;26.23;;;12.67;;
29280;SDS011;25048;49.590;11.026;2022-11-13T00:16:12;27.53;;;12.50;;
29280;SDS011;25048;49.590;11.026;2022-11-13T00:18:41;23.03;;;11.73;;
29280;SDS011;25048;49.590;11.026;2022-11-13T00:21:12;28.50;;;13.23;;
29280;SDS011;25048;49.590;11.026;2022-11-13T00:23:42;20.40;;;11.53;;
29280;SDS011;25048;49.590;11.026;2022-11-13T00:26:15;27.63;;;11.50;;
29280;SDS011;25048;49.590;11.026;2022-11-13T00:28:40;18.63;;;11.00;;
29280;SDS011;25048;49.590;11.026;2022-11-13T00:31:09;24.63;;;11.97;;
29280;SDS011;25048;49.590;11.026;2022-11-13T00:33:39;22.13;;;11.57;;
29280;SDS011;25048;49.590;11.026;2022-11-13T00:36:08;19.47;;;11.23;;
29280;SDS011;25048;49.590;11.026;2022-11-13T00:38:37;25.03;;;10.57;;
29280;SDS011;25048;49.590;11.026;2022-11-13T00:41:05;21.10;;;10.57;;
29280;SDS011;25048;49.590;11.026;2022-11-13T00:43:32;25.23;;;11.07;;
29280;SDS011;25048;49.590;11.026;2022-11-13T00:46:00;23.43;;;11.10;;
29280;SDS011;25048;49.590;11.026;2022-11-13T00:48:27;19.57;;;10.97;;
29280;SDS011;25048;49.590;11.026;2022-11-13T00:50:55;25.20;;;10.37;;
29280;SDS011;25048;49.590;11.026;2022-11-13T00:53:23;26.33;;;11.03;;
29280;SDS011;25048;49.590;11.026;2022-11-13T00:55:50;20.43;;;10.57;;
29280;SDS011;25048;49.590;11.026;2022-11-13T00:58:18;23.47;;;11.60;;
29280;SDS011;25048;49.590;11.026;2022-11-13T01:00:46;21.93;;;10.73;;
29280;SDS011;25048;49.590;11.026;2022-11-13T01:03:14;18.93;;;9.40;;
29280;SDS011;25048;49.590;11.026;2022-11-13T01:05:43;22.87;;;10.13;;
29280;SDS011;25048;49.590;11.026;2022-11-13T01:08:13;21.53;;;11.07;;
29280;SDS011;25048;49.590;11.026;2022-11-13T01:10:43;18.10;;;10.17;;
29280;SDS011;25048;49.590;11.026;2022-11-13T01:13:12;20.47;;;10.13;;
29280;SDS011;25048;49.590;11.026;2022-11-13T01:15:45;23.07;;;10.83;;
29280;SDS011;25048;49.590;11.026;2022-11-13T01:18:10;24.73;;;11.07;;
29280;SDS011;25048;49.590;11.026;2022-11-13T01:20:38;24.90;;;11.30;;
29280;SDS011;25048;49.590;11.026;2022-11-13T01:23:06;33.87;;;12.50;;
29280;SDS011;25048;49.590;11.026;2022-11-13T01:25:34;23.70;;;11.63;;
29280;SDS011;25048;49.590;11.026;2022-11-13T01:28:02;23.50;;;12.17;;
29280;SDS011;25048;49.590;11.026;2022-11-13T01:30:30;24.80;;;12.50;;
29280;SDS011;25048;49.590;11.026;2022-11-13T01:32:57;25.03;;;12.67;;
29280;SDS011;25048;49.590;11.026;2022-11-13T01:35:25;22.00;;;12.30;;
29280;SDS011;25048;49.590;11.026;2022-11-13T01:37:52;25.93;;;12.60;;
29280;SDS011;25048;49.590;11.026;2022-11-13T01:40:20;27.50;;;12.20;;
29280;SDS011;25048;49.590;11.026;2022-11-13T01:42:47;28.77;;;13.77;;
29280;SDS011;25048;49.590;11.026;2022-11-13T01:48:17;24.43;;;11.00;;
29280;SDS011;25048;49.590;11.026;2022-11-13T01:50:45;24.43;;;12.57;;
29280;SDS011;25048;49.590;11.026;2022-11-13T01:53:12;28.63;;;11.97;;
29280;SDS011;25048;49.590;11.026;2022-11-13T01:55:40;22.17;;;11.77;;
29280;SDS011;25048;49.590;11.026;2022-11-13T01:58:07;27.97;;;12.27;;
29280;SDS011;25048;49.590;11.026;2022-11-13T02:00:37;18.90;;;10.40;;
29280;SDS011;25048;49.590;11.026;2022-11-13T02:03:04;20.13;;;10.77;;
29280;SDS011;25048;49.590;11.026;2022-11-13T02:05:32;17.00;;;10.67;;
29280;SDS011;25048;49.590;11.026;2022-11-13T02:07:59;29.03;;;11.30;;
29280;SDS011;25048;49.590;11.026;2022-11-13T02:10:27;20.63;;;11.20;;
29280;SDS011;25048;49.590;11.026;2022-11-13T02:12:55;24.70;;;11.03;;
29280;SDS011;25048;49.590;11.026;2022-11-13T02:15:23;25.50;;;11.77;;
29280;SDS011;25048;49.590;11.026;2022-11-13T02:17:58;17.97;;;10.03;;
29280;SDS011;25048;49.590;11.026;2022-11-13T02:20:25;18.97;;;11.40;;
29280;SDS011;25048;49.590;11.026;2022-11-13T02:23:13;22.30;;;12.43;;
29280;SDS011;25048;49.590;11.026;2022-11-13T02:25:52;29.87;;;11.77;;
29280;SDS011;25048;49.590;11.026;2022-11-13T02:28:20;22.97;;;11.50;;
29280;SDS011;25048;49.590;11.026;2022-11-13T02:30:48;21.70;;;10.83;;
29280;SDS011;25048;49.590;11.026;2022-11-13T02:33:18;25.53;;;11.50;;
29280;SDS011;25048;49.590;11.026;2022-11-13T02:35:55;20.30;;;11.03;;
29280;SDS011;25048;49.590;11.026;2022-11-13T02:38:23;23.53;;;10.97;;
29280;SDS011;25048;49.590;11.026;2022-11-13T02:40:50;22.40;;;12.33;;
29280;SDS011;25048;49.590;11.026;2022-11-13T02:43:18;20.97;;;11.17;;
29280;SDS011;25048;49.590;11.026;2022-11-13T02:45:45;25.47;;;11.60;;
29280;SDS011;25048;49.590;11.026;2022-11-13T02:48:13;21.90;;;11.67;;
29280;SDS011;25048;49.590;11.026;2022-11-13T02:50:40;22.70;;;11.10;;
29280;SDS011;25048;49.590;11.026;2022-11-13T02:53:08;20.57;;;11.07;;
29280;SDS011;25048;49.590;11.026;2022-11-13T02:55:36;23.47;;;11.10;;
29280;SDS011;25048;49.590;11.026;2022-11-13T02:58:03;23.67;;;10.87;;
29280;SDS011;25048;49.590;11.026;2022-11-13T03:00:31;19.77;;;11.27;;
29280;SDS011;25048;49.590;11.026;2022-11-13T03:02:58;21.47;;;10.80;;
29280;SDS011;25048;49.590;11.026;2022-11-13T03:05:26;17.37;;;10.97;;
29280;SDS011;25048;49.590;11.026;2022-11-13T03:07:54;22.43;;;11.00;;
29280;SDS011;25048;49.590;11.026;2022-11-13T03:10:21;17.53;;;10.83;;
29280;SDS011;25048;49.590;11.026;2022-11-13T03:12:49;18.80;;;10.30;;
29280;SDS011;25048;49.590;11.026;2022-11-13T03:15:16;21.13;;;9.77;;
29280;SDS011;25048;49.590;11.026;2022-11-13T03:17:44;20.57;;;10.87;;
29280;SDS011;25048;49.590;11.026;2022-11-13T03:20:11;19.70;;;9.83;;
29280;SDS011;25048;49.590;11.026;2022-11-13T03:22:39;19.03;;;10.07;;
29280;SDS011;25048;49.590;11.026;2022-11-13T03:25:06;17.40;;;9.23;;
29280;SDS011;25048;49.590;11.026;2022-11-13T03:27:34;20.63;;;10.43;;
29280;SDS011;25048;49.590;11.026;2022-11-13T03:30:02;20.93;;;9.73;;
29280;SDS011;25048;49.590;11.026;2022-11-13T03:32:30;23.67;;;11.03;;
29280;SDS011;25048;49.590;11.026;2022-11-13T03:34:57;17.87;;;10.27;;
29280;SDS011;25048;49.590;11.026;2022-11-13T03:37:25;16.23;;;10.03;;
29280;SDS011;25048;49.590;11.026;2022-11-13T03:39:52;24.17;;;11.47;;
29280;SDS011;25048;49.590;11.026;2022-11-13T03:42:20;19.77;;;10.27;;
29280;SDS011;25048;49.590;11.026;2022-11-13T03:44:47;18.03;;;10.67;;
29280;SDS011;25048;49.590;11.026;2022-11-13T03:47:15;15.40;;;9.37;;
29280;SDS011;25048;49.590;11.026;2022-11-13T03:49:42;22.00;;;9.93;;
29280;SDS011;25048;49.590;11.026;2022-11-13T03:52:10;18.90;;;10.70;;
29280;SDS011;25048;49.590;11.026;2022-11-13T03:54:37;23.37;;;10.73;;
29280;SDS011;25048;49.590;11.026;2022-11-13T03:57:05;28.23;;;10.10;;
29280;SDS011;25048;49.590;11.026;2022-11-13T03:59:32;27.30;;;12.80;;
29280;SDS011;25048;49.590;11.026;2022-11-13T04:02:00;23.33;;;11.17;;
29280;SDS011;25048;49.590;11.026;2022-11-13T04:04:27;23.63;;;10.33;;
29280;SDS011;25048;49.590;11.026;2022-11-13T04:06:55;20.37;;;10.37;;
29280;SDS011;25048;49.590;11.026;2022-11-13T04:09:22;23.60;;;11.13;;
29280;SDS011;25048;49.590;11.026;2022-11-13T04:11:50;42.83;;;11.30;;
29280;SDS011;25048;49.590;11.026;2022-11-13T04:14:17;16.67;;;9.00;;
29280;SDS011;25048;49.590;11.026;2022-11-13T04:16:45;23.63;;;10.03;;
29280;SDS011;25048;49.590;11.026;2022-11-13T04:19:12;24.17;;;10.20;;
29280;SDS011;25048;49.590;11.026;2022-11-13T04:21:40;26.57;;;11.13;;
29280;SDS011;25048;49.590;11.026;2022-11-13T04:24:07;21.57;;;10.03;;
29280;SDS011;25048;49.590;11.026;2022-11-13T04:26:35;22.57;;;10.67;;
29280;SDS011;25048;49.590;11.026;2022-11-13T04:29:02;29.50;;;11.07;;
29280;SDS011;25048;49.590;11.026;2022-11-13T04:31:30;25.13;;;10.97;;
29280;SDS011;25048;49.590;11.026;2022-11-13T04:33:57;29.90;;;11.53;;
29280;SDS011;25048;49.590;11.026;2022-11-13T04:36:25;20.30;;;10.47;;
29280;SDS011;25048;49.590;11.026;2022-11-13T04:38:53;36.03;;;12.37;;
29280;SDS011;25048;49.590;11.026;2022-11-13T04:41:20;18.87;;;10.43;;
29280;SDS011;25048;49.590;11.026;2022-11-13T04:44:06;18.63;;;10.20;;
29280;SDS011;25048;49.590;11.026;2022-11-13T04:46:33;25.27;;;10.70;;
29280;SDS011;25048;49.590;11.026;2022-11-13T04:49:01;34.07;;;10.97;;
29280;SDS011;25048;49.590;11.026;2022-11-13T04:51:28;22.67;;;9.33;;
29280;SDS011;25048;49.590;11.026;2022-11-13T04:53:56;35.37;;;10.10;;
29280;SDS011;25048;49.590;11.026;2022-11-13T04:56:23;19.93;;;9.93;;
29280;SDS011;25048;49.590;11.026;2022-11-13T04:58:51;39.50;;;10.77;;
29280;SDS011;25048;49.590;11.026;2022-11-13T05:01:18;30.90;;;11.20;;
29280;SDS011;25048;49.590;11.026;2022-11-13T05:03:46;25.37;;;11.20;;
29280;SDS011;25048;49.590;11.026;2022-11-13T05:06:13;24.93;;;9.67;;
29280;SDS011;25048;49.590;11.026;2022-11-13T05:08:41;29.13;;;9.50;;
29280;SDS011;25048;49.590;11.026;2022-11-13T05:11:08;26.57;;;9.43;;
29280;SDS011;25048;49.590;11.026;2022-11-13T05:13:36;35.33;;;9.77;;
29280;SDS011;25048;49.590;11.026;2022-11-13T05:16:05;30.60;;;9.57;;
29280;SDS011;25048;49.590;11.026;2022-11-13T05:18:34;31.97;;;10.27;;
29280;SDS011;25048;49.590;11.026;2022-11-13T05:21:04;33.73;;;10.23;;
29280;SDS011;25048;49.590;11.026;2022-11-13T05:23:32;28.60;;;10.17;;
29280;SDS011;25048;49.590;11.026;2022-11-13T05:26:04;24.17;;;9.53;;
29280;SDS011;25048;49.590;11.026;2022-11-13T05:28:34;17.30;;;8.93;;
29280;SDS011;25048;49.590;11.026;2022-11-13T05:31:12;27.93;;;10.30;;
29280;SDS011;25048;49.590;11.026;2022-11-13T05:33:35;37.67;;;9.63;;
29280;SDS011;25048;49.590;11.026;2022-11-13T05:36:04;30.60;;;8.90;;
29280;SDS011;25048;49.590;11.026;2022-11-13T05:38:34;35.57;;;11.03;;
29280;SDS011;25048;49.590;11.026;2022-11-13T05:41:03;41.90;;;13.03;;
29280;SDS011;25048;49.590;11.026;2022-11-13T05:43:33;23.37;;;8.83;;
29280;SDS011;25048;49.590;11.026;2022-11-13T05:46:02;28.27;;;9.73;;
29280;SDS011;25048;49.590;11.026;2022-11-13T05:48:32;62.83;;;9.83;;
29280;SDS011;25048;49.590;11.026;2022-11-13T05:51:07;47.20;;;9.67;;
29280;SDS011;25048;49.590;11.026;2022-11-13T05:53:39;21.60;;;8.90;;
29280;SDS011;25048;49.590;11.026;2022-11-13T05:56:13;16.73;;;8.80;;
29280;SDS011;25048;49.590;11.026;2022-11-13T05:58:38;30.90;;;9.10;;
29280;SDS011;25048;49.590;11.026;2022-11-13T06:01:08;29.57;;;10.50;;
29280;SDS011;25048;49.590;11.026;2022-11-13T06:03:43;26.47;;;9.07;;
29280;SDS011;25048;49.590;11.026;2022-11-13T06:06:13;17.50;;;8.63;;
29280;SDS011;25048;49.590;11.026;2022-11-13T06:08:42;37.83;;;8.30;;
29280;SDS011;25048;49.590;11.026;2022-11-13T06:11:11;27.10;;;9.70;;
29280;SDS011;25048;49.590;11.026;2022-11-13T06:13:45;28.43;;;8.90;;
29280;SDS011;25048;49.590;11.026;2022-11-13T06:16:19;27.47;;;9.33;;
29280;SDS011;25048;49.590;11.026;2022-11-13T06:18:44;39.30;;;9.70;;
29280;SDS011;25048;49.590;11.026;2022-11-13T06:21:14;39.23;;;9.07;;
29280;SDS011;25048;49.590;11.026;2022-11-13T06:23:46;30.20;;;8.93;;
29280;SDS011;25048;49.590;11.026;2022-11-13T06:26:15;44.93;;;9.40;;
29280;SDS011;25048;49.590;11.026;2022-11-13T06:28:44;33.57;;;8.07;;
29280;SDS011;25048;49.590;11.026;2022-11-13T06:31:13;18.43;;;7.77;;
29280;SDS011;25048;49.590;11.026;2022-11-13T06:33:42;41.57;;;8.63;;
29280;SDS011;25048;49.590;11.026;2022-11-13T06:36:16;29.20;;;7.90;;
29280;SDS011;25048;49.590;11.026;2022-11-13T06:38:41;36.33;;;8.20;;
29280;SDS011;25048;49.590;11.026;2022-11-13T06:41:10;25.13;;;8.03;;
29280;SDS011;25048;49.590;11.026;2022-11-13T06:43:39;29.77;;;8.23;;
29280;SDS011;25048;49.590;11.026;2022-11-13T06:46:09;17.37;;;8.33;;
29280;SDS011;25048;49.590;11.026;2022-11-13T06:48:41;23.60;;;7.80;;
29280;SDS011;25048;49.590;11.026;2022-11-13T06:51:11;31.47;;;9.60;;
29280;SDS011;25048;49.590;11.026;2022-11-13T06:53:42;45.23;;;8.47;;
29280;SDS011;25048;49.590;11.026;2022-11-13T06:56:11;36.77;;;8.17;;
29280;SDS011;25048;49.590;11.026;2022-11-13T06:58:38;43.37;;;8.80;;
29280;SDS011;25048;49.590;11.026;2022-11-13T07:01:09;26.27;;;8.00;;
29280;SDS011;25048;49.590;11.026;2022-11-13T07:03:41;23.17;;;7.17;;
29280;SDS011;25048;49.590;11.026;2022-11-13T07:06:19;28.40;;;8.40;;
29280;SDS011;25048;49.590;11.026;2022-11-13T07:08:40;23.33;;;7.80;;
29280;SDS011;25048;49.590;11.026;2022-11-13T07:11:09;17.40;;;8.20;;
29280;SDS011;25048;49.590;11.026;2022-11-13T07:13:39;16.60;;;8.87;;
29280;SDS011;25048;49.590;11.026;2022-11-13T07:16:07;20.23;;;8.20;;
29280;SDS011;25048;49.590;11.026;2022-11-13T07:18:35;31.87;;;8.40;;
29280;SDS011;25048;49.590;11.026;2022-11-13T07:21:04;39.87;;;9.27;;
29280;SDS011;25048;49.590;11.026;2022-11-13T07:23:33;30.20;;;8.33;;
29280;SDS011;25048;49.590;11.026;2022-11-13T07:26:04;16.07;;;8.00;;
29280;SDS011;25048;49.590;11.026;2022-11-13T07:28:32;32.23;;;8.50;;
29280;SDS011;25048;49.590;11.026;2022-11-13T07:30:59;16.57;;;7.63;;
29280;SDS011;25048;49.590;11.026;2022-11-13T07:33:27;29.47;;;8.67;;
29280;SDS011;25048;49.590;11.026;2022-11-13T07:35:55;16.50;;;8.07;;
29280;SDS011;25048;49.590;11.026;2022-11-13T07:38:23;16.77;;;7.60;;
29280;SDS011;25048;49.590;11.026;2022-11-13T07:40:50;23.90;;;8.57;;
29280;SDS011;25048;49.590;11.026;2022-11-13T07:43:18;16.43;;;8.17;;
29280;SDS011;25048;49.590;11.026;2022-11-13T07:45:45;23.60;;;8.57;;
29280;SDS011;25048;49.590;11.026;2022-11-13T07:48:14;12.70;;;7.60;;
29280;SDS011;25048;49.590;11.026;2022-11-13T07:50:42;29.43;;;9.23;;
29280;SDS011;25048;49.590;11.026;2022-11-13T07:53:09;26.07;;;8.10;;
29280;SDS011;25048;49.590;11.026;2022-11-13T07:55:37;25.87;;;8.50;;
29280;SDS011;25048;49.590;11.026;2022-11-13T07:58:05;15.53;;;8.10;;
29280;SDS011;25048;49.590;11.026;2022-11-13T08:00:33;21.70;;;8.63;;
29280;SDS011;25048;49.590;11.026;2022-11-13T08:03:11;24.33;;;8.43;;
29280;SDS011;25048;49.590;11.026;2022-11-13T08:05:34;21.50;;;8.40;;
29280;SDS011;25048;49.590;11.026;2022-11-13T08:08:02;17.53;;;7.80;;
29280;SDS011;25048;49.590;11.026;2022-11-13T08:10:29;13.57;;;7.90;;
29280;SDS011;25048;49.590;11.026;2022-11-13T08:13:03;15.23;;;8.97;;
29280;SDS011;25048;49.590;11.026;2022-11-13T08:15:28;14.10;;;8.63;;
29280;SDS011;25048;49.590;11.026;2022-11-13T08:17:57;13.33;;;8.57;;
29280;SDS011;25048;49.590;11.026;2022-11-13T08:20:27;16.20;;;9.00;;
29280;SDS011;25048;49.590;11.026;2022-11-13T08:22:56;13.93;;;8.43;;
29280;SDS011;25048;49.590;11.026;2022-11-13T08:25:25;15.93;;;8.47;;
29280;SDS011;25048;49.590;11.026;2022-11-13T08:27:54;13.50;;;9.00;;
29280;SDS011;25048;49.590;11.026;2022-11-13T08:30:23;11.87;;;7.73;;
29280;SDS011;25048;49.590;11.026;2022-11-13T08:32:51;12.03;;;8.00;;
29280;SDS011;25048;49.590;11.026;2022-11-13T08:35:19;10.90;;;7.80;;
29280;SDS011;25048;49.590;11.026;2022-11-13T08:37:47;12.97;;;8.13;;
29280;SDS011;25048;49.590;11.026;2022-11-13T08:40:15;12.07;;;7.87;;
29280;SDS011;25048;49.590;11.026;2022-11-13T08:42:42;13.10;;;8.07;;
29280;SDS011;25048;49.590;11.026;2022-11-13T08:45:10;11.47;;;7.30;;
29280;SDS011;25048;49.590;11.026;2022-11-13T08:47:38;11.20;;;6.80;;
29280;SDS011;25048;49.590;11.026;2022-11-13T08:50:08;9.87;;;6.47;;
29280;SDS011;25048;49.590;11.026;2022-11-13T08:52:35;11.97;;;7.10;;
29280;SDS011;25048;49.590;11.026;2022-11-13T08:55:02;10.80;;;7.07;;
29280;SDS011;25048;49.590;11.026;2022-11-13T08:57:30;10.23;;;6.90;;
29280;SDS011;25048;49.590;11.026;2022-11-13T08:59:57;9.23;;;6.50;;
29280;SDS011;25048;49.590;11.026;2022-11-13T09:02:26;10.80;;;6.93;;
29280;SDS011;25048;49.590;11.026;2022-11-13T09:04:54;9.10;;;6.23;;
29280;SDS011;25048;49.590;11.026;2022-11-13T09:07:21;7.27;;;5.70;;
29280;SDS011;25048;49.590;11.026;2022-11-13T09:09:49;9.13;;;6.00;;
29280;SDS011;25048;49.590;11.026;2022-11-13T09:12:16;8.27;;;6.20;;
29280;SDS011;25048;49.590;11.026;2022-11-13T09:14:43;8.20;;;6.20;;
29280;SDS011;25048;49.590;11.026;2022-11-13T09:17:11;7.87;;;5.90;;
29280;SDS011;25048;49.590;11.026;2022-11-13T09:19:39;7.93;;;5.97;;
29280;SDS011;25048;49.590;11.026;2022-11-13T09:22:06;10.13;;;6.90;;
29280;SDS011;25048;49.590;11.026;2022-11-13T09:24:34;6.60;;;5.63;;
29280;SDS011;25048;49.590;11.026;2022-11-13T09:27:01;8.90;;;6.10;;
29280;SDS011;25048;49.590;11.026;2022-11-13T09:29:29;9.80;;;6.60;;
29280;SDS011;25048;49.590;11.026;2022-11-13T09:31:56;8.20;;;6.37;;
29280;SDS011;25048;49.590;11.026;2022-11-13T09:34:24;7.90;;;6.07;;
29280;SDS011;25048;49.590;11.026;2022-11-13T09:36:52;9.57;;;6.43;;
29280;SDS011;25048;49.590;11.026;2022-11-13T09:39:20;9.10;;;6.17;;
29280;SDS011;25048;49.590;11.026;2022-11-13T09:41:52;10.73;;;6.67;;
29280;SDS011;25048;49.590;11.026;2022-11-13T09:47:01;9.00;;;6.57;;
29280;SDS011;25048;49.590;11.026;2022-11-13T09:49:45;7.93;;;5.50;;
29280;SDS011;25048;49.590;11.026;2022-11-13T09:52:20;8.03;;;5.30;;
29280;SDS011;25048;49.590;11.026;2022-11-13T09:54:49;7.53;;;5.40;;
29280;SDS011;25048;49.590;11.026;2022-11-13T10:00:17;7.87;;;5.50;;
29280;SDS011;25048;49.590;11.026;2022-11-13T10:05:45;7.73;;;5.63;;
29280;SDS011;25048;49.590;11.026;2022-11-13T10:08:34;6.83;;;5.13;;
29280;SDS011;25048;49.590;11.026;2022-11-13T10:11:05;9.77;;;6.00;;
29280;SDS011;25048;49.590;11.026;2022-11-13T10:18:48;6.57;;;5.10;;
29280;SDS011;25048;49.590;11.026;2022-11-13T10:21:28;8.33;;;5.53;;
29280;SDS011;25048;49.590;11.026;2022-11-13T10:24:02;8.50;;;5.63;;
29280;SDS011;25048;49.590;11.026;2022-11-13T10:26:30;8.13;;;5.47;;
29280;SDS011;25048;49.590;11.026;2022-11-13T10:28:59;7.57;;;5.70;;
29280;SDS011;25048;49.590;11.026;2022-11-13T10:31:28;7.63;;;5.27;;
29280;SDS011;25048;49.590;11.026;2022-11-13T10:33:59;6.70;;;5.50;;
29280;SDS011;25048;49.590;11.026;2022-11-13T10:36:40;8.83;;;5.83;;
29280;SDS011;25048;49.590;11.026;2022-11-13T10:39:16;9.87;;;6.00;;
29280;SDS011;25048;49.590;11.026;2022-11-13T10:41:52;6.10;;;4.80;;
29280;SDS011;25048;49.590;11.026;2022-11-13T10:47:04;7.37;;;5.57;;
29280;SDS011;25048;49.590;11.026;2022-11-13T10:49:33;8.50;;;5.07;;
29280;SDS011;25048;49.590;11.026;2022-11-13T10:52:01;7.67;;;5.63;;
29280;SDS011;25048;49.590;11.026;2022-11-13T10:54:29;6.80;;;5.57;;
29280;SDS011;25048;49.590;11.026;2022-11-13T10:56:59;7.83;;;5.80;;
29280;SDS011;25048;49.590;11.026;2022-11-13T10:59:39;6.90;;;5.53;;
29280;SDS011;25048;49.590;11.026;2022-11-13T11:02:15;7.07;;;5.40;;
29280;SDS011;25048;49.590;11.026;2022-11-13T11:04:47;6.27;;;5.30;;
29280;SDS011;25048;49.590;11.026;2022-11-13T11:07:16;7.47;;;5.07;;
29280;SDS011;25048;49.590;11.026;2022-11-13T11:09:46;9.20;;;5.00;;
29280;SDS011;25048;49.590;11.026;2022-11-13T11:12:16;8.97;;;5.67;;
29280;SDS011;25048;49.590;11.026;2022-11-13T11:20:21;9.00;;;5.43;;
29280;SDS011;25048;49.590;11.026;2022-11-13T11:23:32;9.20;;;5.87;;
29280;SDS011;25048;49.590;11.026;2022-11-13T11:26:17;8.73;;;5.70;;
29280;SDS011;25048;49.590;11.026;2022-11-13T11:29:01;9.87;;;4.97;;
29280;SDS011;25048;49.590;11.026;2022-11-13T11:31:22;8.67;;;5.30;;
29280;SDS011;25048;49.590;11.026;2022-11-13T11:33:59;11.90;;;7.23;;
29280;SDS011;25048;49.590;11.026;2022-11-13T11:39:34;7.33;;;5.13;;
29280;SDS011;25048;49.590;11.026;2022-11-13T11:47:26;9.03;;;5.40;;
29280;SDS011;25048;49.590;11.026;2022-11-13T11:49:54;6.90;;;5.70;;
29280;SDS011;25048;49.590;11.026;2022-11-13T11:52:35;6.37;;;4.80;;
29280;SDS011;25048;49.590;11.026;2022-11-13T11:55:05;5.77;;;4.17;;
29280;SDS011;25048;49.590;11.026;2022-11-13T12:00:18;6.00;;;4.03;;
29280;SDS011;25048;49.590;11.026;2022-11-13T12:08:43;5.23;;;2.97;;
29280;SDS011;25048;49.590;11.026;2022-11-13T12:11:24;4.27;;;3.20;;
29280;SDS011;25048;49.590;11.026;2022-11-13T12:16:42;4.17;;;2.45;;
29280;SDS011;25048;49.590;11.026;2022-11-13T12:19:15;4.93;;;2.57;;
29280;SDS011;25048;49.590;11.026;2022-11-13T12:22:01;6.65;;;3.17;;
29280;SDS011;25048;49.590;11.026;2022-11-13T12:27:46;5.67;;;3.05;;
29280;SDS011;25048;49.590;11.026;2022-11-13T12:30:07;5.78;;;3.37;;
29280;SDS011;25048;49.590;11.026;2022-11-13T12:35:24;4.03;;;2.67;;
29280;SDS011;25048;49.590;11.026;2022-11-13T12:37:55;7.20;;;3.10;;
29280;SDS011;25048;49.590;11.026;2022-11-13T12:45:39;5.97;;;3.25;;
29280;SDS011;25048;49.590;11.026;2022-11-13T12:48:08;7.53;;;3.33;;
29280;SDS011;25048;49.590;11.026;2022-11-13T12:50:36;4.72;;;3.30;;
29280;SDS011;25048;49.590;11.026;2022-11-13T12:53:07;6.20;;;3.70;;
29280;SDS011;25048;49.590;11.026;2022-11-13T12:55:35;4.12;;;3.20;;
29280;SDS011;25048;49.590;11.026;2022-11-13T12:58:16;5.45;;;3.17;;
29280;SDS011;25048;49.590;11.026;2022-11-13T13:00:51;6.12;;;4.10;;
29280;SDS011;25048;49.590;11.026;2022-11-13T13:06:22;4.53;;;2.83;;
29280;SDS011;25048;49.590;11.026;2022-11-13T13:08:55;6.17;;;3.22;;
29280;SDS011;25048;49.590;11.026;2022-11-13T13:14:17;4.55;;;3.15;;
29280;SDS011;25048;49.590;11.026;2022-11-13T13:17:03;5.00;;;2.90;;
29280;SDS011;25048;49.590;11.026;2022-11-13T13:19:33;7.00;;;3.37;;
29280;SDS011;25048;49.590;11.026;2022-11-13T13:22:00;7.03;;;3.20;;
29280;SDS011;25048;49.590;11.026;2022-11-13T13:24:29;4.90;;;2.90;;
29280;SDS011;25048;49.590;11.026;2022-11-13T13:26:59;4.28;;;2.90;;
29280;SDS011;25048;49.590;11.026;2022-11-13T13:29:27;4.80;;;2.90;;
29280;SDS011;25048;49.590;11.026;2022-11-13T13:32:00;4.90;;;3.20;;
29280;SDS011;25048;49.590;11.026;2022-11-13T13:40:20;4.25;;;3.27;;
29280;SDS011;25048;49.590;11.026;2022-11-13T13:43:13;5.28;;;3.40;;
29280;SDS011;25048;49.590;11.026;2022-11-13T13:45:46;6.37;;;3.62;;
29280;SDS011;25048;49.590;11.026;2022-11-13T13:48:16;7.90;;;3.90;;
29280;SDS011;25048;49.590;11.026;2022-11-13T13:50:47;8.43;;;3.20;;
29280;SDS011;25048;49.590;11.026;2022-11-13T13:53:17;7.12;;;3.77;;
29280;SDS011;25048;49.590;11.026;2022-11-13T13:55:53;5.53;;;3.55;;
29280;SDS011;25048;49.590;11.026;2022-11-13T13:58:18;5.90;;;3.37;;
29280;SDS011;25048;49.590;11.026;2022-11-13T14:01:02;5.70;;;3.33;;
29280;SDS011;25048;49.590;11.026;2022-11-13T14:03:26;7.37;;;3.02;;
29280;SDS011;25048;49.590;11.026;2022-11-13T14:05:54;4.60;;;3.00;;
29280;SDS011;25048;49.590;11.026;2022-11-13T14:08:25;4.28;;;2.98;;
29280;SDS011;25048;49.590;11.026;2022-11-13T14:10:53;4.72;;;3.12;;
29280;SDS011;25048;49.590;11.026;2022-11-13T14:13:25;5.20;;;3.20;;
29280;SDS011;25048;49.590;11.026;2022-11-13T14:16:00;6.40;;;3.33;;
29280;SDS011;25048;49.590;11.026;2022-11-13T14:18:30;5.15;;;3.47;;
29280;SDS011;25048;49.590;11.026;2022-11-13T14:20:59;7.65;;;3.27;;
29280;SDS011;25048;49.590;11.026;2022-11-13T14:23:36;6.58;;;3.52;;
29280;SDS011;25048;49.590;11.026;2022-11-13T14:26:08;5.75;;;3.12;;
29280;SDS011;25048;49.590;11.026;2022-11-13T14:28:46;7.97;;;3.37;;
29280;SDS011;25048;49.590;11.026;2022-11-13T14:31:11;4.70;;;3.05;;
29280;SDS011;25048;49.590;11.026;2022-11-13T14:33:43;6.03;;;3.17;;
29280;SDS011;25048;49.590;11.026;2022-11-13T14:36:14;5.80;;;3.50;;
29280;SDS011;25048;49.590;11.026;2022-11-13T14:38:44;6.45;;;3.25;;
29280;SDS011;25048;49.590;11.026;2022-11-13T14:41:28;6.33;;;3.57;;
29280;SDS011;25048;49.590;11.026;2022-11-13T14:44:03;4.87;;;2.77;;
29280;SDS011;25048;49.590;11.026;2022-11-13T14:46:34;4.83;;;2.98;;
29280;SDS011;25048;49.590;11.026;2022-11-13T14:49:11;8.40;;;3.22;;
29280;SDS011;25048;49.590;11.026;2022-11-13T14:51:53;6.67;;;3.70;;
29280;SDS011;25048;49.590;11.026;2022-11-13T14:54:26;5.50;;;3.30;;
29280;SDS011;25048;49.590;11.026;2022-11-13T14:57:08;6.60;;;3.97;;
29280;SDS011;25048;49.590;11.026;2022-11-13T14:59:37;6.57;;;3.80;;
29280;SDS011;25048;49.590;11.026;2022-11-13T15:02:08;5.07;;;3.60;;
29280;SDS011;25048;49.590;11.026;2022-11-13T15:04:37;7.03;;;4.40;;
29280;SDS011;25048;49.590;11.026;2022-11-13T15:07:23;6.13;;;4.00;;
29280;SDS011;25048;49.590;11.026;2022-11-13T15:09:55;6.13;;;3.60;;
29280;SDS011;25048;49.590;11.026;2022-11-13T15:12:24;5.67;;;3.53;;
29280;SDS011;25048;49.590;11.026;2022-11-13T15:14:52;5.97;;;3.63;;
29280;SDS011;25048;49.590;11.026;2022-11-13T15:17:19;11.33;;;4.13;;
29280;SDS011;25048;49.590;11.026;2022-11-13T15:19:50;6.37;;;3.80;;
29280;SDS011;25048;49.590;11.026;2022-11-13T15:22:19;6.33;;;3.70;;
29280;SDS011;25048;49.590;11.026;2022-11-13T15:24:46;5.27;;;3.67;;
29280;SDS011;25048;49.590;11.026;2022-11-13T15:27:14;5.70;;;3.77;;
29280;SDS011;25048;49.590;11.026;2022-11-13T15:29:42;7.40;;;4.10;;
29280;SDS011;25048;49.590;11.026;2022-11-13T15:32:11;6.67;;;3.97;;
29280;SDS011;25048;49.590;11.026;2022-11-13T15:34:39;6.47;;;3.80;;
29280;SDS011;25048;49.590;11.026;2022-11-13T15:37:11;6.17;;;3.77;;
29280;SDS011;25048;49.590;11.026;2022-11-13T15:39:40;7.17;;;4.03;;
29280;SDS011;25048;49.590;11.026;2022-11-13T15:42:13;8.47;;;4.23;;
29280;SDS011;25048;49.590;11.026;2022-11-13T15:44:38;6.63;;;4.30;;